sensor_id;sensor_type;location;lat;lon;timestamp;temperature;humidity
15700;DHT22;7950;42.744;23.174;2023-03-21T00:01:44;9.40;99.90
15700;DHT22;7950;42.744;23.174;2023-03-21T00:04:24;9.40;99.90
15700;DHT22;7950;42.744;23.174;2023-03-21T00:06:57;9.30;99.90
15700;DHT22;7950;42.744;23.174;2023-03-21T00:09:25;9.30;99.90
15700;DHT22;7950;42.744;23.174;2023-03-21T00:11:53;9.20;99.90
15700;DHT22;7950;42.744;23.174;2023-03-21T00:14:21;9.20;99.90
15700;DHT22;7950;42.744;23.174;2023-03-21T00:16:52;9.20;99.90
15700;DHT22;7950;42.744;23.174;2023-03-21T00:19:22;9.20;99.90
15700;DHT22;7950;42.744;23.174;2023-03-21T00:22:09;9.10;99.90
15700;DHT22;7950;42.744;23.174;2023-03-21T00:24:37;9.10;99.90
15700;DHT22;7950;42.744;23.174;2023-03-21T00:27:06;9.10;99.90
15700;DHT22;7950;42.744;23.174;2023-03-21T00:29:54;9.10;99.90
15700;DHT22;7950;42.744;23.174;2023-03-21T00:32:22;9.00;99.90
15700;DHT22;7950;42.744;23.174;2023-03-21T00:35:29;9.00;99.90
15700;DHT22;7950;42.744;23.174;2023-03-21T00:38:17;8.90;99.90
15700;DHT22;7950;42.744;23.174;2023-03-21T00:40:46;8.80;99.90
15700;DHT22;7950;42.744;23.174;2023-03-21T00:43:17;8.80;99.90
15700;DHT22;7950;42.744;23.174;2023-03-21T00:45:50;8.80;99.90
15700;DHT22;7950;42.744;23.174;2023-03-21T00:48:18;8.70;99.90
15700;DHT22;7950;42.744;23.174;2023-03-21T00:50:50;8.70;99.90
15700;DHT22;7950;42.744;23.174;2023-03-21T00:53:20;8.70;99.90
15700;DHT22;7950;42.744;23.174;2023-03-21T00:55:48;8.60;99.90
15700;DHT22;7950;42.744;23.174;2023-03-21T00:58:17;8.60;99.90
15700;DHT22;7950;42.744;23.174;2023-03-21T01:00:45;8.60;99.90
15700;DHT22;7950;42.744;23.174;2023-03-21T01:03:15;8.60;99.90
15700;DHT22;7950;42.744;23.174;2023-03-21T01:05:56;8.50;99.90
15700;DHT22;7950;42.744;23.174;2023-03-21T01:08:35;8.50;99.90
15700;DHT22;7950;42.744;23.174;2023-03-21T01:11:46;8.50;99.90
15700;DHT22;7950;42.744;23.174;2023-03-21T01:14:17;8.40;99.90
15700;DHT22;7950;42.744;23.174;2023-03-21T01:16:51;8.40;99.90
15700;DHT22;7950;42.744;23.174;2023-03-21T01:19:21;8.30;99.90
15700;DHT22;7950;42.744;23.174;2023-03-21T01:22:11;8.30;99.90
15700;DHT22;7950;42.744;23.174;2023-03-21T01:25:08;8.40;99.90
15700;DHT22;7950;42.744;23.174;2023-03-21T01:27:48;8.40;99.90
15700;DHT22;7950;42.744;23.174;2023-03-21T01:30:17;8.40;99.90
15700;DHT22;7950;42.744;23.174;2023-03-21T01:32:50;8.50;99.90
15700;DHT22;7950;42.744;23.174;2023-03-21T01:35:18;8.50;99.90
15700;DHT22;7950;42.744;23.174;2023-03-21T01:37:48;8.40;99.90
15700;DHT22;7950;42.744;23.174;2023-03-21T01:40:43;8.40;99.90
15700;DHT22;7950;42.744;23.174;2023-03-21T01:43:30;8.30;99.90
15700;DHT22;7950;42.744;23.174;2023-03-21T01:49:23;8.30;99.90
15700;DHT22;7950;42.744;23.174;2023-03-21T01:51:56;8.30;99.90
15700;DHT22;7950;42.744;23.174;2023-03-21T01:54:43;8.30;99.90
15700;DHT22;7950;42.744;23.174;2023-03-21T01:57:15;8.40;99.90
15700;DHT22;7950;42.744;23.174;2023-03-21T01:59:47;8.30;99.90
15700;DHT22;7950;42.744;23.174;2023-03-21T02:02:20;8.30;99.90
15700;DHT22;7950;42.744;23.174;2023-03-21T02:04:51;8.30;99.90
15700;DHT22;7950;42.744;23.174;2023-03-21T02:07:25;8.30;99.90
15700;DHT22;7950;42.744;23.174;2023-03-21T02:09:57;8.30;99.90
15700;DHT22;7950;42.744;23.174;2023-03-21T02:12:26;8.20;99.90
15700;DHT22;7950;42.744;23.174;2023-03-21T02:14:54;8.10;99.90
15700;DHT22;7950;42.744;23.174;2023-03-21T02:17:27;8.10;99.90
15700;DHT22;7950;42.744;23.174;2023-03-21T02:20:18;8.10;99.90
15700;DHT22;7950;42.744;23.174;2023-03-21T02:23:08;8.10;99.90
15700;DHT22;7950;42.744;23.174;2023-03-21T02:28:54;8.00;99.90
15700;DHT22;7950;42.744;23.174;2023-03-21T02:31:27;8.00;99.90
15700;DHT22;7950;42.744;23.174;2023-03-21T02:37:15;7.80;99.90
15700;DHT22;7950;42.744;23.174;2023-03-21T02:39:52;7.70;99.90
15700;DHT22;7950;42.744;23.174;2023-03-21T02:42:28;7.70;99.90
15700;DHT22;7950;42.744;23.174;2023-03-21T02:45:03;7.60;99.90
15700;DHT22;7950;42.744;23.174;2023-03-21T02:47:34;7.50;99.90
15700;DHT22;7950;42.744;23.174;2023-03-21T02:50:31;7.40;99.90
15700;DHT22;7950;42.744;23.174;2023-03-21T02:53:03;7.30;99.90
15700;DHT22;7950;42.744;23.174;2023-03-21T02:55:35;7.30;99.90
15700;DHT22;7950;42.744;23.174;2023-03-21T02:58:07;7.20;99.90
15700;DHT22;7950;42.744;23.174;2023-03-21T03:00:39;7.20;99.90
15700;DHT22;7950;42.744;23.174;2023-03-21T03:03:09;7.10;99.90
15700;DHT22;7950;42.744;23.174;2023-03-21T03:05:54;7.10;99.90
15700;DHT22;7950;42.744;23.174;2023-03-21T03:08:29;7.00;99.90
15700;DHT22;7950;42.744;23.174;2023-03-21T03:11:22;7.00;99.90
15700;DHT22;7950;42.744;23.174;2023-03-21T03:13:58;6.80;99.90
15700;DHT22;7950;42.744;23.174;2023-03-21T03:16:55;6.80;99.90
15700;DHT22;7950;42.744;23.174;2023-03-21T03:19:33;6.80;99.90
15700;DHT22;7950;42.744;23.174;2023-03-21T03:22:20;6.70;99.90
15700;DHT22;7950;42.744;23.174;2023-03-21T03:24:56;6.70;99.90
15700;DHT22;7950;42.744;23.174;2023-03-21T03:27:40;6.60;99.90
15700;DHT22;7950;42.744;23.174;2023-03-21T03:30:11;6.60;99.90
15700;DHT22;7950;42.744;23.174;2023-03-21T03:32:45;6.70;99.90
15700;DHT22;7950;42.744;23.174;2023-03-21T03:35:17;6.60;99.90
15700;DHT22;7950;42.744;23.174;2023-03-21T03:38:12;6.60;99.90
15700;DHT22;7950;42.744;23.174;2023-03-21T03:40:45;6.70;99.90
15700;DHT22;7950;42.744;23.174;2023-03-21T03:43:19;6.70;99.90
15700;DHT22;7950;42.744;23.174;2023-03-21T03:45:52;6.70;99.90
15700;DHT22;7950;42.744;23.174;2023-03-21T03:48:24;6.80;99.90
15700;DHT22;7950;42.744;23.174;2023-03-21T03:50:55;6.70;99.90
15700;DHT22;7950;42.744;23.174;2023-03-21T03:53:31;6.80;99.90
15700;DHT22;7950;42.744;23.174;2023-03-21T03:56:06;6.70;99.90
15700;DHT22;7950;42.744;23.174;2023-03-21T03:58:35;6.70;99.90
15700;DHT22;7950;42.744;23.174;2023-03-21T04:01:12;6.80;99.90
15700;DHT22;7950;42.744;23.174;2023-03-21T04:03:42;6.70;99.90
15700;DHT22;7950;42.744;23.174;2023-03-21T04:06:17;6.70;99.90
15700;DHT22;7950;42.744;23.174;2023-03-21T04:08:48;6.70;99.90
15700;DHT22;7950;42.744;23.174;2023-03-21T04:11:18;6.60;99.90
15700;DHT22;7950;42.744;23.174;2023-03-21T04:13:46;6.60;99.90
15700;DHT22;7950;42.744;23.174;2023-03-21T04:16:15;6.70;99.90
15700;DHT22;7950;42.744;23.174;2023-03-21T04:18:43;6.70;99.90
15700;DHT22;7950;42.744;23.174;2023-03-21T04:21:12;6.70;99.90
15700;DHT22;7950;42.744;23.174;2023-03-21T04:23:41;6.70;99.90
15700;DHT22;7950;42.744;23.174;2023-03-21T04:26:09;6.70;99.90
15700;DHT22;7950;42.744;23.174;2023-03-21T04:28:39;6.70;99.90
15700;DHT22;7950;42.744;23.174;2023-03-21T04:31:07;6.70;99.90
15700;DHT22;7950;42.744;23.174;2023-03-21T04:33:51;6.60;99.90
15700;DHT22;7950;42.744;23.174;2023-03-21T04:36:21;6.60;99.90
15700;DHT22;7950;42.744;23.174;2023-03-21T04:38:54;6.50;99.90
15700;DHT22;7950;42.744;23.174;2023-03-21T04:41:23;6.50;99.90
15700;DHT22;7950;42.744;23.174;2023-03-21T04:43:52;6.50;99.90
15700;DHT22;7950;42.744;23.174;2023-03-21T04:46:22;6.50;99.90
15700;DHT22;7950;42.744;23.174;2023-03-21T04:48:50;6.40;99.90
15700;DHT22;7950;42.744;23.174;2023-03-21T04:51:18;6.50;99.90
15700;DHT22;7950;42.744;23.174;2023-03-21T04:53:47;6.50;99.90
15700;DHT22;7950;42.744;23.174;2023-03-21T04:56:15;6.50;99.90
15700;DHT22;7950;42.744;23.174;2023-03-21T04:58:43;6.50;99.90
15700;DHT22;7950;42.744;23.174;2023-03-21T05:01:13;6.40;99.90
15700;DHT22;7950;42.744;23.174;2023-03-21T05:03:46;6.50;99.90
15700;DHT22;7950;42.744;23.174;2023-03-21T05:06:14;6.50;99.90
15700;DHT22;7950;42.744;23.174;2023-03-21T05:08:42;6.50;99.90
15700;DHT22;7950;42.744;23.174;2023-03-21T05:11:11;6.50;99.90
15700;DHT22;7950;42.744;23.174;2023-03-21T05:13:39;6.50;99.90
15700;DHT22;7950;42.744;23.174;2023-03-21T05:16:08;6.50;99.90
15700;DHT22;7950;42.744;23.174;2023-03-21T05:18:38;6.50;99.90
15700;DHT22;7950;42.744;23.174;2023-03-21T05:21:06;6.50;99.90
15700;DHT22;7950;42.744;23.174;2023-03-21T05:23:36;6.50;99.90
15700;DHT22;7950;42.744;23.174;2023-03-21T05:26:06;6.60;99.90
15700;DHT22;7950;42.744;23.174;2023-03-21T05:28:35;6.60;99.90
15700;DHT22;7950;42.744;23.174;2023-03-21T05:31:03;6.70;99.90
15700;DHT22;7950;42.744;23.174;2023-03-21T05:33:32;6.70;99.90
15700;DHT22;7950;42.744;23.174;2023-03-21T05:36:01;6.70;99.90
15700;DHT22;7950;42.744;23.174;2023-03-21T05:38:30;6.80;99.90
15700;DHT22;7950;42.744;23.174;2023-03-21T05:40:58;6.90;99.90
15700;DHT22;7950;42.744;23.174;2023-03-21T05:43:26;7.00;99.90
15700;DHT22;7950;42.744;23.174;2023-03-21T05:45:55;7.10;99.90
15700;DHT22;7950;42.744;23.174;2023-03-21T05:48:24;7.10;99.90
15700;DHT22;7950;42.744;23.174;2023-03-21T05:50:52;7.20;99.90
15700;DHT22;7950;42.744;23.174;2023-03-21T05:53:22;7.20;99.90
15700;DHT22;7950;42.744;23.174;2023-03-21T05:55:51;7.30;99.90
15700;DHT22;7950;42.744;23.174;2023-03-21T05:58:19;7.50;99.90
15700;DHT22;7950;42.744;23.174;2023-03-21T06:00:47;7.70;99.90
15700;DHT22;7950;42.744;23.174;2023-03-21T06:03:15;7.80;99.90
15700;DHT22;7950;42.744;23.174;2023-03-21T06:05:44;8.00;99.90
15700;DHT22;7950;42.744;23.174;2023-03-21T06:08:12;8.10;99.90
15700;DHT22;7950;42.744;23.174;2023-03-21T06:11:00;8.30;99.90
15700;DHT22;7950;42.744;23.174;2023-03-21T06:13:28;8.50;99.90
15700;DHT22;7950;42.744;23.174;2023-03-21T06:15:58;8.70;99.90
15700;DHT22;7950;42.744;23.174;2023-03-21T06:18:27;8.90;99.90
15700;DHT22;7950;42.744;23.174;2023-03-21T06:20:55;9.10;99.90
15700;DHT22;7950;42.744;23.174;2023-03-21T06:23:24;9.20;99.90
15700;DHT22;7950;42.744;23.174;2023-03-21T06:25:53;9.40;99.90
15700;DHT22;7950;42.744;23.174;2023-03-21T06:28:24;9.50;99.90
15700;DHT22;7950;42.744;23.174;2023-03-21T06:30:52;9.60;99.90
15700;DHT22;7950;42.744;23.174;2023-03-21T06:33:21;9.80;99.90
15700;DHT22;7950;42.744;23.174;2023-03-21T06:35:53;9.90;99.90
15700;DHT22;7950;42.744;23.174;2023-03-21T06:38:21;10.10;99.90
15700;DHT22;7950;42.744;23.174;2023-03-21T06:41:15;10.20;99.90
15700;DHT22;7950;42.744;23.174;2023-03-21T06:43:45;10.40;99.90
15700;DHT22;7950;42.744;23.174;2023-03-21T06:46:14;10.50;99.90
15700;DHT22;7950;42.744;23.174;2023-03-21T06:48:42;10.60;99.90
15700;DHT22;7950;42.744;23.174;2023-03-21T06:51:11;10.80;99.90
15700;DHT22;7950;42.744;23.174;2023-03-21T06:53:40;10.90;99.90
15700;DHT22;7950;42.744;23.174;2023-03-21T06:56:09;11.10;99.90
15700;DHT22;7950;42.744;23.174;2023-03-21T06:58:38;11.20;99.90
15700;DHT22;7950;42.744;23.174;2023-03-21T07:01:07;11.30;99.90
15700;DHT22;7950;42.744;23.174;2023-03-21T07:03:36;11.30;99.90
15700;DHT22;7950;42.744;23.174;2023-03-21T07:06:06;11.40;99.90
15700;DHT22;7950;42.744;23.174;2023-03-21T07:08:38;11.50;99.90
15700;DHT22;7950;42.744;23.174;2023-03-21T07:11:07;11.60;99.90
15700;DHT22;7950;42.744;23.174;2023-03-21T07:13:35;11.60;99.90
15700;DHT22;7950;42.744;23.174;2023-03-21T07:16:05;11.70;99.90
15700;DHT22;7950;42.744;23.174;2023-03-21T07:18:35;11.70;99.90
15700;DHT22;7950;42.744;23.174;2023-03-21T07:21:04;11.80;99.90
15700;DHT22;7950;42.744;23.174;2023-03-21T07:23:32;11.80;99.90
15700;DHT22;7950;42.744;23.174;2023-03-21T07:26:01;11.90;99.90
15700;DHT22;7950;42.744;23.174;2023-03-21T07:28:29;11.90;99.90
15700;DHT22;7950;42.744;23.174;2023-03-21T07:31:00;11.90;99.90
15700;DHT22;7950;42.744;23.174;2023-03-21T07:33:28;12.00;99.90
15700;DHT22;7950;42.744;23.174;2023-03-21T07:35:58;12.00;99.90
15700;DHT22;7950;42.744;23.174;2023-03-21T07:38:27;12.10;99.90
15700;DHT22;7950;42.744;23.174;2023-03-21T07:40:58;12.10;99.90
15700;DHT22;7950;42.744;23.174;2023-03-21T07:43:26;12.20;99.90
15700;DHT22;7950;42.744;23.174;2023-03-21T07:45:58;12.20;99.90
15700;DHT22;7950;42.744;23.174;2023-03-21T07:48:27;12.30;99.90
15700;DHT22;7950;42.744;23.174;2023-03-21T07:50:57;12.40;99.90
15700;DHT22;7950;42.744;23.174;2023-03-21T07:53:25;12.50;99.90
15700;DHT22;7950;42.744;23.174;2023-03-21T07:55:54;12.60;99.90
15700;DHT22;7950;42.744;23.174;2023-03-21T07:58:22;12.70;99.90
15700;DHT22;7950;42.744;23.174;2023-03-21T08:00:51;12.80;99.90
15700;DHT22;7950;42.744;23.174;2023-03-21T08:03:19;12.90;99.90
15700;DHT22;7950;42.744;23.174;2023-03-21T08:05:50;12.90;99.90
15700;DHT22;7950;42.744;23.174;2023-03-21T08:08:19;13.00;99.90
15700;DHT22;7950;42.744;23.174;2023-03-21T08:10:48;13.10;99.90
15700;DHT22;7950;42.744;23.174;2023-03-21T08:13:16;13.20;99.90
15700;DHT22;7950;42.744;23.174;2023-03-21T08:15:44;13.30;99.90
15700;DHT22;7950;42.744;23.174;2023-03-21T08:18:12;13.40;99.90
15700;DHT22;7950;42.744;23.174;2023-03-21T08:24:00;13.50;99.90
15700;DHT22;7950;42.744;23.174;2023-03-21T08:26:28;13.60;99.90
15700;DHT22;7950;42.744;23.174;2023-03-21T08:28:58;13.70;99.90
15700;DHT22;7950;42.744;23.174;2023-03-21T08:31:26;13.80;99.90
15700;DHT22;7950;42.744;23.174;2023-03-21T08:33:55;13.80;99.90
15700;DHT22;7950;42.744;23.174;2023-03-21T08:36:23;13.80;99.90
15700;DHT22;7950;42.744;23.174;2023-03-21T08:38:52;13.90;99.90
15700;DHT22;7950;42.744;23.174;2023-03-21T08:41:24;13.90;99.90
15700;DHT22;7950;42.744;23.174;2023-03-21T08:43:52;13.90;99.90
15700;DHT22;7950;42.744;23.174;2023-03-21T08:46:21;13.90;99.90
15700;DHT22;7950;42.744;23.174;2023-03-21T08:48:49;13.90;99.90
15700;DHT22;7950;42.744;23.174;2023-03-21T08:51:17;14.00;99.90
15700;DHT22;7950;42.744;23.174;2023-03-21T08:53:46;14.00;99.90
15700;DHT22;7950;42.744;23.174;2023-03-21T08:56:16;14.00;99.90
15700;DHT22;7950;42.744;23.174;2023-03-21T08:58:46;14.10;98.90
15700;DHT22;7950;42.744;23.174;2023-03-21T09:01:15;14.10;98.50
15700;DHT22;7950;42.744;23.174;2023-03-21T09:03:44;14.20;97.40
15700;DHT22;7950;42.744;23.174;2023-03-21T09:06:12;14.30;96.80
15700;DHT22;7950;42.744;23.174;2023-03-21T09:08:41;14.30;96.30
15700;DHT22;7950;42.744;23.174;2023-03-21T09:11:12;14.30;95.80
15700;DHT22;7950;42.744;23.174;2023-03-21T09:13:40;14.40;95.90
15700;DHT22;7950;42.744;23.174;2023-03-21T09:16:10;14.40;96.10
15700;DHT22;7950;42.744;23.174;2023-03-21T09:18:38;14.40;95.40
15700;DHT22;7950;42.744;23.174;2023-03-21T09:21:14;14.50;94.80
15700;DHT22;7950;42.744;23.174;2023-03-21T09:23:43;14.50;93.20
15700;DHT22;7950;42.744;23.174;2023-03-21T09:26:12;14.60;93.00
15700;DHT22;7950;42.744;23.174;2023-03-21T09:28:41;14.70;92.50
15700;DHT22;7950;42.744;23.174;2023-03-21T09:31:11;14.70;92.90
15700;DHT22;7950;42.744;23.174;2023-03-21T09:33:42;14.80;92.40
15700;DHT22;7950;42.744;23.174;2023-03-21T09:36:11;14.90;92.40
15700;DHT22;7950;42.744;23.174;2023-03-21T09:38:41;15.00;91.00
15700;DHT22;7950;42.744;23.174;2023-03-21T09:41:20;15.10;90.60
15700;DHT22;7950;42.744;23.174;2023-03-21T09:44:00;15.10;90.10
15700;DHT22;7950;42.744;23.174;2023-03-21T09:46:37;15.10;89.80
15700;DHT22;7950;42.744;23.174;2023-03-21T09:49:13;15.20;85.40
15700;DHT22;7950;42.744;23.174;2023-03-21T09:51:45;15.40;85.00
15700;DHT22;7950;42.744;23.174;2023-03-21T09:54:18;15.40;83.10
15700;DHT22;7950;42.744;23.174;2023-03-21T09:56:50;15.40;83.10
15700;DHT22;7950;42.744;23.174;2023-03-21T09:59:55;15.40;83.40
15700;DHT22;7950;42.744;23.174;2023-03-21T10:02:37;15.50;84.50
15700;DHT22;7950;42.744;23.174;2023-03-21T10:05:12;15.60;81.90
15700;DHT22;7950;42.744;23.174;2023-03-21T10:07:50;15.70;81.50
15700;DHT22;7950;42.744;23.174;2023-03-21T10:10:22;15.80;81.40
15700;DHT22;7950;42.744;23.174;2023-03-21T10:12:54;15.90;80.70
15700;DHT22;7950;42.744;23.174;2023-03-21T10:15:24;16.00;80.50
15700;DHT22;7950;42.744;23.174;2023-03-21T10:17:58;16.00;78.70
15700;DHT22;7950;42.744;23.174;2023-03-21T10:20:30;16.10;79.90
15700;DHT22;7950;42.744;23.174;2023-03-21T10:23:00;16.30;79.00
15700;DHT22;7950;42.744;23.174;2023-03-21T10:25:32;16.60;78.60
15700;DHT22;7950;42.744;23.174;2023-03-21T10:28:03;16.90;75.80
15700;DHT22;7950;42.744;23.174;2023-03-21T10:30:39;17.30;75.80
15700;DHT22;7950;42.744;23.174;2023-03-21T10:33:12;17.60;76.10
15700;DHT22;7950;42.744;23.174;2023-03-21T10:35:45;17.80;75.20
15700;DHT22;7950;42.744;23.174;2023-03-21T10:38:18;18.00;71.10
15700;DHT22;7950;42.744;23.174;2023-03-21T10:40:46;18.00;70.40
15700;DHT22;7950;42.744;23.174;2023-03-21T10:43:40;18.00;69.00
15700;DHT22;7950;42.744;23.174;2023-03-21T10:46:11;17.80;68.10
15700;DHT22;7950;42.744;23.174;2023-03-21T10:49:07;17.80;70.70
15700;DHT22;7950;42.744;23.174;2023-03-21T10:51:36;17.80;70.00
15700;DHT22;7950;42.744;23.174;2023-03-21T10:54:10;17.70;69.90
15700;DHT22;7950;42.744;23.174;2023-03-21T10:56:44;17.70;70.10
15700;DHT22;7950;42.744;23.174;2023-03-21T10:59:17;17.70;70.00
15700;DHT22;7950;42.744;23.174;2023-03-21T11:01:50;17.70;70.40
15700;DHT22;7950;42.744;23.174;2023-03-21T11:04:21;17.80;71.30
15700;DHT22;7950;42.744;23.174;2023-03-21T11:06:53;17.90;70.00
15700;DHT22;7950;42.744;23.174;2023-03-21T11:09:23;18.00;70.20
15700;DHT22;7950;42.744;23.174;2023-03-21T11:11:54;18.20;68.40
15700;DHT22;7950;42.744;23.174;2023-03-21T11:14:35;18.20;68.00
15700;DHT22;7950;42.744;23.174;2023-03-21T11:17:19;18.40;66.70
15700;DHT22;7950;42.744;23.174;2023-03-21T11:19:50;18.50;67.80
15700;DHT22;7950;42.744;23.174;2023-03-21T11:22:21;18.50;67.70
15700;DHT22;7950;42.744;23.174;2023-03-21T11:24:53;18.50;66.80
15700;DHT22;7950;42.744;23.174;2023-03-21T11:27:26;18.50;66.70
15700;DHT22;7950;42.744;23.174;2023-03-21T11:29:57;18.50;66.90
15700;DHT22;7950;42.744;23.174;2023-03-21T11:32:30;18.60;66.70
15700;DHT22;7950;42.744;23.174;2023-03-21T11:35:03;18.70;64.20
15700;DHT22;7950;42.744;23.174;2023-03-21T11:37:36;18.50;64.30
15700;DHT22;7950;42.744;23.174;2023-03-21T11:40:17;18.30;65.20
15700;DHT22;7950;42.744;23.174;2023-03-21T11:42:47;18.30;65.50
15700;DHT22;7950;42.744;23.174;2023-03-21T11:45:19;18.20;65.70
15700;DHT22;7950;42.744;23.174;2023-03-21T11:47:49;18.20;65.90
15700;DHT22;7950;42.744;23.174;2023-03-21T11:50:28;18.20;66.70
15700;DHT22;7950;42.744;23.174;2023-03-21T11:53:21;18.20;66.90
15700;DHT22;7950;42.744;23.174;2023-03-21T11:56:03;18.30;66.80
15700;DHT22;7950;42.744;23.174;2023-03-21T11:58:45;18.40;66.10
15700;DHT22;7950;42.744;23.174;2023-03-21T12:01:23;18.40;62.30
15700;DHT22;7950;42.744;23.174;2023-03-21T12:04:06;18.20;62.10
15700;DHT22;7950;42.744;23.174;2023-03-21T12:06:45;18.00;62.60
15700;DHT22;7950;42.744;23.174;2023-03-21T12:09:28;17.90;63.70
15700;DHT22;7950;42.744;23.174;2023-03-21T12:12:08;17.70;64.80
15700;DHT22;7950;42.744;23.174;2023-03-21T12:14:46;17.70;63.90
15700;DHT22;7950;42.744;23.174;2023-03-21T12:17:29;17.70;62.30
15700;DHT22;7950;42.744;23.174;2023-03-21T12:20:13;17.70;63.30
15700;DHT22;7950;42.744;23.174;2023-03-21T12:22:52;17.60;62.90
15700;DHT22;7950;42.744;23.174;2023-03-21T12:25:27;17.50;62.20
15700;DHT22;7950;42.744;23.174;2023-03-21T12:28:04;17.40;63.00
15700;DHT22;7950;42.744;23.174;2023-03-21T12:30:47;17.40;62.90
15700;DHT22;7950;42.744;23.174;2023-03-21T12:33:28;17.40;63.40
15700;DHT22;7950;42.744;23.174;2023-03-21T12:36:09;17.40;62.80
15700;DHT22;7950;42.744;23.174;2023-03-21T12:38:51;17.40;62.50
15700;DHT22;7950;42.744;23.174;2023-03-21T12:41:25;17.40;62.80
15700;DHT22;7950;42.744;23.174;2023-03-21T12:43:59;17.50;62.40
15700;DHT22;7950;42.744;23.174;2023-03-21T12:46:33;17.60;62.90
15700;DHT22;7950;42.744;23.174;2023-03-21T12:49:07;17.70;62.40
15700;DHT22;7950;42.744;23.174;2023-03-21T12:51:40;17.80;62.10
15700;DHT22;7950;42.744;23.174;2023-03-21T12:54:20;17.80;59.80
15700;DHT22;7950;42.744;23.174;2023-03-21T12:56:54;17.70;57.80
15700;DHT22;7950;42.744;23.174;2023-03-21T12:59:30;17.50;58.60
15700;DHT22;7950;42.744;23.174;2023-03-21T13:02:09;17.40;59.60
15700;DHT22;7950;42.744;23.174;2023-03-21T13:04:45;17.40;59.20
15700;DHT22;7950;42.744;23.174;2023-03-21T13:07:17;17.40;59.70
15700;DHT22;7950;42.744;23.174;2023-03-21T13:09:49;17.20;59.20
15700;DHT22;7950;42.744;23.174;2023-03-21T13:12:32;17.10;59.60
15700;DHT22;7950;42.744;23.174;2023-03-21T13:15:12;17.10;60.90
15700;DHT22;7950;42.744;23.174;2023-03-21T13:17:53;17.00;60.90
15700;DHT22;7950;42.744;23.174;2023-03-21T13:20:28;17.00;61.00
15700;DHT22;7950;42.744;23.174;2023-03-21T13:22:59;17.00;61.10
15700;DHT22;7950;42.744;23.174;2023-03-21T13:25:31;17.00;60.80
15700;DHT22;7950;42.744;23.174;2023-03-21T13:28:02;16.90;61.00
15700;DHT22;7950;42.744;23.174;2023-03-21T13:30:31;16.80;61.00
15700;DHT22;7950;42.744;23.174;2023-03-21T13:33:35;16.80;61.20
15700;DHT22;7950;42.744;23.174;2023-03-21T13:36:06;16.80;61.00
15700;DHT22;7950;42.744;23.174;2023-03-21T13:38:36;16.70;60.90
15700;DHT22;7950;42.744;23.174;2023-03-21T13:41:10;16.60;61.00
15700;DHT22;7950;42.744;23.174;2023-03-21T13:43:42;16.60;61.40
15700;DHT22;7950;42.744;23.174;2023-03-21T13:46:42;16.60;62.10
15700;DHT22;7950;42.744;23.174;2023-03-21T13:49:29;16.60;62.30
15700;DHT22;7950;42.744;23.174;2023-03-21T13:51:59;16.60;62.40
15700;DHT22;7950;42.744;23.174;2023-03-21T13:54:47;16.60;62.10
15700;DHT22;7950;42.744;23.174;2023-03-21T13:57:34;16.60;62.60
15700;DHT22;7950;42.744;23.174;2023-03-21T14:00:16;16.50;62.60
15700;DHT22;7950;42.744;23.174;2023-03-21T14:02:59;16.50;62.90
15700;DHT22;7950;42.744;23.174;2023-03-21T14:05:32;16.50;62.90
15700;DHT22;7950;42.744;23.174;2023-03-21T14:08:05;16.40;63.30
15700;DHT22;7950;42.744;23.174;2023-03-21T14:10:56;16.40;64.10
15700;DHT22;7950;42.744;23.174;2023-03-21T14:13:27;16.40;64.10
15700;DHT22;7950;42.744;23.174;2023-03-21T14:16:05;16.40;65.40
15700;DHT22;7950;42.744;23.174;2023-03-21T14:18:41;16.40;64.80
15700;DHT22;7950;42.744;23.174;2023-03-21T14:21:27;16.40;65.10
15700;DHT22;7950;42.744;23.174;2023-03-21T14:23:59;16.40;66.00
15700;DHT22;7950;42.744;23.174;2023-03-21T14:26:29;16.40;65.60
15700;DHT22;7950;42.744;23.174;2023-03-21T14:29:01;16.30;65.20
15700;DHT22;7950;42.744;23.174;2023-03-21T14:31:31;16.30;66.50
15700;DHT22;7950;42.744;23.174;2023-03-21T14:34:01;16.20;66.30
15700;DHT22;7950;42.744;23.174;2023-03-21T14:36:32;16.20;65.90
15700;DHT22;7950;42.744;23.174;2023-03-21T14:39:14;16.20;66.00
15700;DHT22;7950;42.744;23.174;2023-03-21T14:41:48;16.10;66.30
15700;DHT22;7950;42.744;23.174;2023-03-21T14:44:21;16.10;67.10
15700;DHT22;7950;42.744;23.174;2023-03-21T14:46:53;16.00;67.70
15700;DHT22;7950;42.744;23.174;2023-03-21T14:49:27;16.00;68.20
15700;DHT22;7950;42.744;23.174;2023-03-21T14:51:58;15.90;68.80
15700;DHT22;7950;42.744;23.174;2023-03-21T14:54:28;15.90;69.30
15700;DHT22;7950;42.744;23.174;2023-03-21T14:56:59;15.80;69.80
15700;DHT22;7950;42.744;23.174;2023-03-21T14:59:33;15.70;71.00
15700;DHT22;7950;42.744;23.174;2023-03-21T15:02:07;15.80;73.80
15700;DHT22;7950;42.744;23.174;2023-03-21T15:04:49;15.40;73.40
15700;DHT22;7950;42.744;23.174;2023-03-21T15:07:26;15.20;74.60
15700;DHT22;7950;42.744;23.174;2023-03-21T15:09:55;15.00;79.20
15700;DHT22;7950;42.744;23.174;2023-03-21T15:12:24;14.90;82.70
15700;DHT22;7950;42.744;23.174;2023-03-21T15:14:54;14.80;84.90
15700;DHT22;7950;42.744;23.174;2023-03-21T15:17:24;14.80;90.80
15700;DHT22;7950;42.744;23.174;2023-03-21T15:19:53;14.70;89.30
15700;DHT22;7950;42.744;23.174;2023-03-21T15:22:32;14.70;90.00
15700;DHT22;7950;42.744;23.174;2023-03-21T15:25:04;14.60;92.90
15700;DHT22;7950;42.744;23.174;2023-03-21T15:27:38;14.50;95.40
15700;DHT22;7950;42.744;23.174;2023-03-21T15:30:18;14.40;95.40
15700;DHT22;7950;42.744;23.174;2023-03-21T15:32:46;14.30;96.10
15700;DHT22;7950;42.744;23.174;2023-03-21T15:35:19;14.30;94.80
15700;DHT22;7950;42.744;23.174;2023-03-21T15:37:55;14.30;96.40
15700;DHT22;7950;42.744;23.174;2023-03-21T15:40:25;14.20;99.90
15700;DHT22;7950;42.744;23.174;2023-03-21T15:43:15;14.20;99.90
15700;DHT22;7950;42.744;23.174;2023-03-21T15:45:50;14.10;99.90
15700;DHT22;7950;42.744;23.174;2023-03-21T15:48:25;14.00;99.90
15700;DHT22;7950;42.744;23.174;2023-03-21T15:50:57;14.00;99.90
15700;DHT22;7950;42.744;23.174;2023-03-21T15:53:27;14.10;99.90
15700;DHT22;7950;42.744;23.174;2023-03-21T15:55:59;13.90;99.90
15700;DHT22;7950;42.744;23.174;2023-03-21T15:58:33;13.70;99.90
15700;DHT22;7950;42.744;23.174;2023-03-21T16:01:07;13.60;99.90
15700;DHT22;7950;42.744;23.174;2023-03-21T16:03:42;13.40;99.90
15700;DHT22;7950;42.744;23.174;2023-03-21T16:06:17;13.30;99.90
15700;DHT22;7950;42.744;23.174;2023-03-21T16:08:48;13.20;99.90
15700;DHT22;7950;42.744;23.174;2023-03-21T16:11:23;13.00;99.90
15700;DHT22;7950;42.744;23.174;2023-03-21T16:13:53;12.90;99.90
15700;DHT22;7950;42.744;23.174;2023-03-21T16:16:25;12.80;99.90
15700;DHT22;7950;42.744;23.174;2023-03-21T16:18:54;12.70;99.90
15700;DHT22;7950;42.744;23.174;2023-03-21T16:21:25;12.60;99.90
15700;DHT22;7950;42.744;23.174;2023-03-21T16:23:54;12.50;99.90
15700;DHT22;7950;42.744;23.174;2023-03-21T16:26:25;12.50;99.90
15700;DHT22;7950;42.744;23.174;2023-03-21T16:28:54;12.40;99.90
15700;DHT22;7950;42.744;23.174;2023-03-21T16:31:26;12.30;99.90